createdAt,value
2018-08-22T00:01:31.724Z,93.60
2018-08-22T00:04:00.105Z,93.50
2018-08-22T00:06:28.566Z,93.10
2018-08-22T00:08:57.015Z,93.20
2018-08-22T00:11:25.356Z,93.30
2018-08-22T00:13:53.768Z,93.20
2018-08-22T00:16:22.175Z,93.30
2018-08-22T00:18:50.689Z,93.40
2018-08-22T00:21:19.169Z,93.60
2018-08-22T00:23:47.656Z,93.70
2018-08-22T00:26:17.228Z,93.80
2018-08-22T00:28:45.673Z,94.00
2018-08-22T00:31:14.143Z,94.20
2018-08-22T00:33:42.553Z,94.20
2018-08-22T00:36:11.020Z,94.40
2018-08-22T00:38:39.407Z,94.60
2018-08-22T00:41:07.951Z,94.60
2018-08-22T00:43:36.375Z,94.60
2018-08-22T00:46:04.764Z,94.70
2018-08-22T00:48:33.176Z,94.50
2018-08-22T00:51:01.584Z,94.70
2018-08-22T00:53:29.984Z,94.70
2018-08-22T00:55:58.449Z,94.60
2018-08-22T00:58:26.843Z,94.50
2018-08-22T01:00:55.243Z,94.30
2018-08-22T01:03:23.643Z,94.20
2018-08-22T01:05:52.183Z,94.30
2018-08-22T01:08:20.610Z,94.40
2018-08-22T01:10:49.013Z,94.60
2018-08-22T01:13:17.403Z,94.80
2018-08-22T01:15:45.808Z,94.80
2018-08-22T01:18:14.207Z,94.80
2018-08-22T01:20:42.661Z,94.80
2018-08-22T01:23:11.063Z,94.90
2018-08-22T01:25:39.555Z,94.80
2018-08-22T01:28:07.957Z,94.80
2018-08-22T01:30:36.366Z,94.70
2018-08-22T01:33:04.794Z,94.80
2018-08-22T01:35:33.298Z,95.00
2018-08-22T01:38:01.700Z,95.00
2018-08-22T01:40:30.115Z,95.20
2018-08-22T01:42:58.513Z,95.20
2018-08-22T01:45:26.913Z,95.30
2018-08-22T01:47:55.299Z,95.10
2018-08-22T01:50:23.731Z,95.10
2018-08-22T01:52:52.135Z,95.10
2018-08-22T01:55:20.577Z,95.20
2018-08-22T01:57:48.958Z,95.40
2018-08-22T02:00:17.398Z,95.70
2018-08-22T02:02:45.999Z,96.00
2018-08-22T02:05:14.416Z,96.00
2018-08-22T02:07:42.796Z,96.00
2018-08-22T02:10:11.213Z,96.10
2018-08-22T02:12:39.608Z,96.00
2018-08-22T02:15:08.028Z,96.10
2018-08-22T02:17:36.586Z,96.10
2018-08-22T02:20:05.248Z,96.30
2018-08-22T02:22:33.733Z,96.40
2018-08-22T02:25:02.313Z,96.50
2018-08-22T02:27:30.714Z,96.50
2018-08-22T02:29:59.128Z,96.40
2018-08-22T02:32:27.600Z,96.30
2018-08-22T02:34:56.008Z,96.30
2018-08-22T02:37:24.406Z,96.30
2018-08-22T02:39:52.804Z,96.30
2018-08-22T02:42:21.191Z,96.30
2018-08-22T02:44:49.620Z,96.50
2018-08-22T02:47:18.028Z,96.40
2018-08-22T02:49:46.408Z,96.30
2018-08-22T02:52:14.799Z,96.40
2018-08-22T02:54:43.226Z,96.60
2018-08-22T02:57:11.595Z,96.40
2018-08-22T02:59:39.988Z,96.50
2018-08-22T03:02:08.428Z,97.00
2018-08-22T03:04:36.820Z,96.60
2018-08-22T03:07:05.236Z,96.80
2018-08-22T03:09:33.636Z,96.60
2018-08-22T03:12:02.031Z,96.70
2018-08-22T03:14:30.408Z,96.80
2018-08-22T03:16:58.843Z,96.80
2018-08-22T03:19:27.251Z,97.00
2018-08-22T03:21:55.650Z,97.20
2018-08-22T03:24:24.048Z,97.20
2018-08-22T03:26:52.775Z,97.30
2018-08-22T03:29:21.194Z,97.20
2018-08-22T03:31:49.614Z,97.10
2018-08-22T03:34:18.050Z,97.10
2018-08-22T03:36:46.469Z,97.10
2018-08-22T03:39:14.923Z,97.40
2018-08-22T03:41:43.332Z,97.30
2018-08-22T03:44:11.739Z,97.40
2018-08-22T03:46:40.121Z,97.40
2018-08-22T03:49:08.523Z,97.50
2018-08-22T03:51:36.905Z,97.50
2018-08-22T03:54:05.444Z,97.60
2018-08-22T03:56:33.912Z,97.80
2018-08-22T03:59:02.412Z,97.90
2018-08-22T04:01:30.836Z,98.10
2018-08-22T04:03:59.236Z,98.10
2018-08-22T04:06:27.656Z,98.20
2018-08-22T04:08:56.046Z,98.10
2018-08-22T04:11:24.451Z,98.20
2018-08-22T04:13:52.864Z,98.30
2018-08-22T04:16:21.252Z,98.70
2018-08-22T04:18:49.696Z,98.90
2018-08-22T04:21:18.093Z,99.00
2018-08-22T04:23:46.467Z,99.30
2018-08-22T04:26:14.861Z,99.40
2018-08-22T04:28:43.377Z,99.40
2018-08-22T04:31:11.792Z,99.40
2018-08-22T04:33:40.302Z,99.90
2018-08-22T04:36:08.725Z,99.70
2018-08-22T04:38:37.131Z,99.70
2018-08-22T04:41:05.591Z,99.80
2018-08-22T04:43:34.055Z,99.80
2018-08-22T04:46:02.523Z,99.80
2018-08-22T04:48:30.966Z,99.70
2018-08-22T04:50:59.351Z,99.60
2018-08-22T04:53:27.779Z,99.60
2018-08-22T04:55:56.201Z,99.40
2018-08-22T04:58:24.763Z,99.30
2018-08-22T05:00:53.151Z,99.20
2018-08-22T05:03:21.539Z,99.10
2018-08-22T05:05:50.012Z,99.00
2018-08-22T05:08:18.425Z,98.90
2018-08-22T05:10:46.835Z,98.90
2018-08-22T05:13:15.341Z,99.00
2018-08-22T05:15:43.763Z,98.80
2018-08-22T05:18:12.155Z,98.50
2018-08-22T05:20:40.584Z,98.20
2018-08-22T05:23:08.965Z,98.00
2018-08-22T05:25:37.408Z,97.80
2018-08-22T05:28:05.946Z,97.20
2018-08-22T05:30:34.335Z,97.00
2018-08-22T05:33:02.820Z,96.70
2018-08-22T05:35:31.214Z,96.40
2018-08-22T05:37:59.615Z,96.10
2018-08-22T05:40:28.111Z,95.70
2018-08-22T05:42:56.491Z,95.10
2018-08-22T05:45:25.069Z,95.00
2018-08-22T05:47:53.573Z,94.60
2018-08-22T05:50:21.999Z,94.50
2018-08-22T05:52:50.459Z,94.30
2018-08-22T05:55:18.889Z,94.00
2018-08-22T05:57:47.320Z,93.40
2018-08-22T06:00:15.699Z,93.20
2018-08-22T06:02:44.128Z,93.10
2018-08-22T06:05:12.512Z,92.60
2018-08-22T06:07:40.936Z,92.50
2018-08-22T06:10:09.361Z,92.30
2018-08-22T06:12:37.891Z,92.40
2018-08-22T06:15:06.284Z,92.60
2018-08-22T06:17:34.780Z,92.20
2018-08-22T06:20:03.196Z,91.80
2018-08-22T06:22:31.652Z,91.70
2018-08-22T06:25:00.140Z,91.60
2018-08-22T06:27:28.904Z,91.50
2018-08-22T06:29:57.389Z,91.30
2018-08-22T06:32:26.052Z,91.10
2018-08-22T06:34:54.445Z,90.90
2018-08-22T06:37:22.887Z,91.20
2018-08-22T06:39:51.296Z,90.50
2018-08-22T06:42:19.687Z,90.70
2018-08-22T06:44:48.156Z,90.70
2018-08-22T06:47:16.570Z,90.80
2018-08-22T06:49:44.980Z,90.20
2018-08-22T06:52:13.381Z,89.70
2018-08-22T06:54:41.783Z,89.00
2018-08-22T06:57:10.193Z,88.00
2018-08-22T06:59:38.566Z,87.00
2018-08-22T07:02:06.949Z,86.40
2018-08-22T07:04:35.368Z,86.20
2018-08-22T07:07:03.769Z,84.80
2018-08-22T07:09:32.184Z,85.70
2018-08-22T07:12:00.588Z,83.60
2018-08-22T07:14:29.005Z,84.30
2018-08-22T07:16:57.416Z,82.90
2018-08-22T07:19:25.847Z,81.20
2018-08-22T07:21:54.240Z,82.40
2018-08-22T07:24:22.696Z,81.40
2018-08-22T07:26:51.097Z,80.10
2018-08-22T07:29:19.493Z,79.40
2018-08-22T07:31:47.908Z,79.80
2018-08-22T07:34:16.323Z,79.60
2018-08-22T07:36:44.789Z,79.10
2018-08-22T07:39:13.831Z,78.20
2018-08-22T07:41:42.232Z,77.90
2018-08-22T07:44:11.289Z,77.90
2018-08-22T07:46:39.708Z,78.30
2018-08-22T07:49:08.131Z,78.00
2018-08-22T07:51:36.615Z,77.60
2018-08-22T07:54:05.211Z,78.10
2018-08-22T07:56:33.636Z,79.20
2018-08-22T07:59:12.715Z,79.20
2018-08-22T08:01:41.118Z,79.90
2018-08-22T08:04:11.126Z,79.30
2018-08-22T08:06:39.782Z,77.10
2018-08-22T08:09:10.623Z,74.60
2018-08-22T08:11:39.241Z,71.90
2018-08-22T08:14:08.393Z,69.30
2018-08-22T08:16:36.787Z,66.70
2018-08-22T08:19:05.973Z,64.60
2018-08-22T08:21:34.365Z,64.10
2018-08-22T08:24:02.897Z,63.10
2018-08-22T08:26:31.333Z,61.50
2018-08-22T08:28:59.719Z,61.20
2018-08-22T08:31:28.275Z,60.10
2018-08-22T08:33:56.744Z,59.50
2018-08-22T08:36:25.131Z,60.00
2018-08-22T08:38:53.573Z,59.60
2018-08-22T08:41:21.989Z,59.10
2018-08-22T08:43:50.427Z,59.70
2018-08-22T08:46:18.872Z,59.60
2018-08-22T08:48:47.275Z,58.70
2018-08-22T08:51:15.717Z,58.00
2018-08-22T08:53:44.417Z,57.60
2018-08-22T08:56:12.849Z,57.50
2018-08-22T08:58:41.326Z,57.20
2018-08-22T09:01:09.704Z,57.20
2018-08-22T09:03:38.130Z,55.90
2018-08-22T09:06:06.500Z,54.80
2018-08-22T09:08:34.920Z,54.30
2018-08-22T09:11:03.418Z,53.10
2018-08-22T09:13:31.948Z,54.20
2018-08-22T09:16:00.412Z,53.60
2018-08-22T09:18:28.784Z,53.10
2018-08-22T09:20:57.245Z,52.50
2018-08-22T09:23:25.613Z,51.80
2018-08-22T09:25:54.004Z,51.50
2018-08-22T09:28:22.426Z,51.40
2018-08-22T09:30:50.816Z,51.60
2018-08-22T09:33:19.332Z,51.10
2018-08-22T09:35:47.728Z,51.40
2018-08-22T09:38:16.132Z,51.70
2018-08-22T09:40:44.560Z,52.20
2018-08-22T09:43:13.030Z,52.00
2018-08-22T09:45:41.436Z,51.30
2018-08-22T09:48:09.853Z,51.50
2018-08-22T09:50:38.252Z,50.80
2018-08-22T09:53:06.636Z,50.00
2018-08-22T09:55:35.044Z,49.10
2018-08-22T09:58:03.484Z,48.50
2018-08-22T10:00:37.222Z,47.10
2018-08-22T10:03:05.598Z,46.80
2018-08-22T10:05:34.136Z,47.20
2018-08-22T10:08:02.564Z,46.60
2018-08-22T10:10:31.165Z,47.00
2018-08-22T10:12:59.653Z,45.70
2018-08-22T10:15:28.092Z,45.60
2018-08-22T10:17:56.492Z,45.10
2018-08-22T10:20:24.893Z,45.20
2018-08-22T10:22:53.328Z,45.10
2018-08-22T10:25:21.737Z,45.30
2018-08-22T10:27:50.128Z,45.70
2018-08-22T10:30:18.531Z,45.20
2018-08-22T10:32:46.969Z,45.70
2018-08-22T10:35:15.416Z,45.50
2018-08-22T10:37:43.783Z,46.50
2018-08-22T10:40:12.175Z,45.60
2018-08-22T10:42:40.613Z,45.60
2018-08-22T10:45:09.020Z,45.50
2018-08-22T10:47:38.409Z,45.10
2018-08-22T10:50:06.854Z,44.80
2018-08-22T10:52:35.651Z,45.70
2018-08-22T10:55:04.285Z,45.60
2018-08-22T10:57:32.779Z,46.10
2018-08-22T11:00:01.280Z,46.70
2018-08-22T11:02:29.669Z,46.40
2018-08-22T11:04:58.171Z,46.20
2018-08-22T11:07:26.560Z,45.90
2018-08-22T11:09:54.997Z,46.50
2018-08-22T11:12:23.513Z,46.90
2018-08-22T11:14:51.987Z,46.90
2018-08-22T11:17:20.379Z,46.60
2018-08-22T11:19:48.787Z,47.10
2018-08-22T11:22:28.679Z,46.90
2018-08-22T11:25:08.211Z,47.40
2018-08-22T11:27:47.904Z,47.80
2018-08-22T11:30:27.823Z,46.80
2018-08-22T11:33:07.491Z,46.30
2018-08-22T11:35:34.804Z,46.50
2018-08-22T11:38:03.199Z,47.40
2018-08-22T11:40:31.623Z,47.90
2018-08-22T11:43:00.006Z,48.00
2018-08-22T11:45:28.396Z,47.50
2018-08-22T11:47:56.826Z,47.90
2018-08-22T11:50:25.238Z,47.90
2018-08-22T11:52:53.803Z,47.90
2018-08-22T11:55:22.658Z,47.90
2018-08-22T11:57:51.100Z,48.60
2018-08-22T12:00:19.493Z,48.90
2018-08-22T12:02:47.896Z,48.80
2018-08-22T12:05:16.336Z,48.40
2018-08-22T12:07:44.784Z,48.20
2018-08-22T12:10:13.400Z,48.40
2018-08-22T12:12:41.796Z,48.70
2018-08-22T12:15:10.231Z,49.00
2018-08-22T12:17:38.673Z,49.70
2018-08-22T12:20:07.237Z,49.90
2018-08-22T12:22:35.701Z,49.70
2018-08-22T12:25:04.113Z,50.40
2018-08-22T12:27:32.533Z,50.60
2018-08-22T12:30:00.967Z,50.70
2018-08-22T12:32:29.909Z,51.20
2018-08-22T12:34:58.873Z,51.40
2018-08-22T12:37:27.311Z,51.50
2018-08-22T12:39:55.770Z,52.10
2018-08-22T12:42:24.175Z,52.40
2018-08-22T12:44:52.582Z,53.00
2018-08-22T12:47:21.471Z,53.10
2018-08-22T12:49:50.444Z,53.20
2018-08-22T12:52:18.968Z,53.60
2018-08-22T12:54:47.514Z,53.90
2018-08-22T12:57:15.988Z,54.20
2018-08-22T12:59:44.384Z,54.40
2018-08-22T13:02:12.776Z,54.50
2018-08-22T13:04:41.272Z,54.70
2018-08-22T13:07:09.763Z,54.80
2018-08-22T13:09:38.220Z,54.60
2018-08-22T13:12:06.641Z,54.80
2018-08-22T13:14:35.121Z,54.40
2018-08-22T13:17:03.628Z,54.90
2018-08-22T13:19:31.952Z,55.40
2018-08-22T13:22:00.352Z,55.30
2018-08-22T13:24:28.818Z,55.20
2018-08-22T13:26:57.228Z,55.00
2018-08-22T13:29:25.644Z,55.60
2018-08-22T13:31:54.060Z,55.70
2018-08-22T13:34:22.504Z,55.50
2018-08-22T13:36:50.905Z,55.40
2018-08-22T13:39:19.309Z,55.60
2018-08-22T13:41:47.748Z,55.60
2018-08-22T13:44:16.145Z,55.40
2018-08-22T13:46:44.734Z,55.10
2018-08-22T13:49:13.305Z,55.30
2018-08-22T13:51:41.740Z,55.30
2018-08-22T13:54:10.124Z,55.20
2018-08-22T13:56:38.568Z,55.80
2018-08-22T13:59:06.968Z,56.50
2018-08-22T14:01:35.398Z,55.90
2018-08-22T14:04:03.820Z,56.30
2018-08-22T14:06:32.225Z,56.50
2018-08-22T14:09:01.528Z,56.30
2018-08-22T14:11:29.960Z,56.40
2018-08-22T14:13:58.356Z,56.30
2018-08-22T14:16:26.848Z,56.00
2018-08-22T14:18:55.249Z,56.00
2018-08-22T14:21:23.684Z,56.10
2018-08-22T14:23:52.097Z,56.30
2018-08-22T14:26:20.520Z,56.00
2018-08-22T14:28:48.969Z,56.70
2018-08-22T14:31:17.645Z,56.60
2018-08-22T14:33:46.271Z,56.40
2018-08-22T14:36:14.637Z,56.30
2018-08-22T14:38:43.045Z,56.40
2018-08-22T14:41:11.540Z,56.70
2018-08-22T14:43:40.506Z,57.00
2018-08-22T14:46:09.344Z,56.90
2018-08-22T14:48:37.748Z,56.90
2018-08-22T14:51:06.364Z,56.90
2018-08-22T14:53:34.774Z,56.70
2018-08-22T14:56:03.237Z,56.70
2018-08-22T14:58:31.632Z,56.90
2018-08-22T15:01:00.179Z,57.10
2018-08-22T15:03:28.821Z,57.50
2018-08-22T15:05:57.074Z,57.10
2018-08-22T15:08:25.524Z,57.30
2018-08-22T15:10:53.916Z,57.30
2018-08-22T15:13:22.430Z,57.80
2018-08-22T15:15:50.889Z,58.00
2018-08-22T15:18:19.304Z,58.20
2018-08-22T15:20:47.727Z,58.20
2018-08-22T15:23:16.123Z,58.10
2018-08-22T15:25:44.532Z,58.50
2018-08-22T15:28:12.931Z,58.60
2018-08-22T15:30:41.359Z,58.70
2018-08-22T15:33:09.995Z,58.70
2018-08-22T15:35:38.415Z,58.90
2018-08-22T15:38:06.840Z,59.30
2018-08-22T15:40:35.268Z,59.90
2018-08-22T15:43:03.669Z,59.30
2018-08-22T15:45:32.118Z,58.80
2018-08-22T15:48:00.535Z,59.40
2018-08-22T15:50:28.974Z,59.70
2018-08-22T15:52:57.407Z,60.10
2018-08-22T15:55:25.840Z,60.20
2018-08-22T15:58:06.762Z,60.40
2018-08-22T16:00:39.662Z,60.40
2018-08-22T16:03:09.005Z,60.50
2018-08-22T16:05:38.308Z,61.70
2018-08-22T16:08:07.176Z,60.80
2018-08-22T16:10:36.550Z,61.10
2018-08-22T16:13:05.249Z,61.80
2018-08-22T16:15:34.994Z,62.10
2018-08-22T16:18:08.998Z,62.80
2018-08-22T16:20:48.096Z,63.50
2018-08-22T16:23:16.614Z,64.00
2018-08-22T16:25:51.426Z,64.40
2018-08-22T16:28:20.105Z,64.90
2018-08-22T16:30:56.952Z,65.00
2018-08-22T16:33:19.633Z,65.60
2018-08-22T16:35:48.218Z,66.00
2018-08-22T16:38:16.640Z,66.40
2018-08-22T16:40:49.048Z,66.90
2018-08-22T16:43:34.343Z,67.30
2018-08-22T16:46:05.574Z,67.90
2018-08-22T16:48:34.165Z,68.80
2018-08-22T16:51:02.613Z,69.10
2018-08-22T16:53:31.153Z,69.00
2018-08-22T16:55:59.737Z,69.70
2018-08-22T16:58:28.236Z,70.40
2018-08-22T17:00:56.595Z,70.90
2018-08-22T17:03:25.317Z,71.40
2018-08-22T17:06:01.829Z,72.10
2018-08-22T17:08:31.164Z,72.50
2018-08-22T17:11:05.032Z,73.30
2018-08-22T17:13:42.180Z,74.70
2018-08-22T17:16:10.751Z,74.60
2018-08-22T17:18:39.517Z,74.80
2018-08-22T17:21:08.383Z,76.50
2018-08-22T17:23:36.809Z,77.80
2018-08-22T17:26:05.719Z,77.00
2018-08-22T17:28:39.145Z,78.00
2018-08-22T17:31:08.025Z,76.80
2018-08-22T17:33:38.603Z,77.60
2018-08-22T17:36:08.155Z,77.60
2018-08-22T17:38:36.838Z,78.60
2018-08-22T17:41:05.533Z,78.90
2018-08-22T17:43:50.773Z,78.90
2018-08-22T17:46:19.187Z,80.00
2018-08-22T17:48:47.789Z,79.90
2018-08-22T17:51:16.259Z,81.70
2018-08-22T17:53:44.639Z,81.90
2018-08-22T17:56:13.174Z,82.00
2018-08-22T17:58:41.765Z,82.40
2018-08-22T18:01:10.175Z,82.60
2018-08-22T18:03:38.888Z,86.00
2018-08-22T18:06:07.314Z,86.40
2018-08-22T18:08:35.737Z,85.90
2018-08-22T18:11:04.149Z,85.30
2018-08-22T18:13:32.657Z,84.30
2018-08-22T18:16:01.073Z,84.20
2018-08-22T18:18:29.516Z,83.70
2018-08-22T18:21:00.280Z,84.40
2018-08-22T18:23:28.696Z,84.80
2018-08-22T18:26:01.224Z,85.20
2018-08-22T18:28:30.042Z,84.40
2018-08-22T18:30:58.484Z,84.30
2018-08-22T18:33:26.929Z,84.70
2018-08-22T18:35:56.427Z,85.10
2018-08-22T18:38:24.864Z,85.80
2018-08-22T18:41:04.533Z,85.50
2018-08-22T18:43:33.036Z,86.10
2018-08-22T18:46:03.793Z,86.70
2018-08-22T18:48:33.492Z,86.90
2018-08-22T18:51:02.199Z,86.80
2018-08-22T18:53:30.616Z,87.10
2018-08-22T18:56:10.638Z,87.40
2018-08-22T18:58:39.432Z,88.10
2018-08-22T19:01:07.908Z,88.10
2018-08-22T19:03:36.574Z,88.40
2018-08-22T19:06:05.252Z,88.90
2018-08-22T19:08:36.536Z,89.10
2018-08-22T19:11:05.254Z,88.90
2018-08-22T19:13:34.026Z,89.50
2018-08-22T19:16:05.651Z,89.70
2018-08-22T19:18:34.052Z,88.90
2018-08-22T19:21:04.145Z,89.60
2018-08-22T19:23:33.433Z,90.00
2018-08-22T19:26:03.864Z,90.00
2018-08-22T19:28:34.631Z,90.00
2018-08-22T19:31:03.181Z,90.00
2018-08-22T19:33:31.605Z,90.00
2018-08-22T19:36:00.107Z,90.00
2018-08-22T19:38:28.963Z,90.10
2018-08-22T19:40:59.025Z,90.20
2018-08-22T19:43:27.485Z,90.30
2018-08-22T19:45:55.901Z,90.30
2018-08-22T19:48:24.760Z,90.40
2018-08-22T19:50:53.223Z,90.30
2018-08-22T19:53:21.689Z,90.50
2018-08-22T19:55:50.117Z,90.40
2018-08-22T19:58:28.687Z,90.40
2018-08-22T20:00:59.428Z,90.30
2018-08-22T20:03:34.992Z,90.70
2018-08-22T20:06:03.709Z,90.90
2018-08-22T20:08:35.560Z,90.50
2018-08-22T20:11:05.267Z,90.60
2018-08-22T20:13:46.271Z,90.70
2018-08-22T20:16:15.004Z,90.80
2018-08-22T20:18:44.670Z,90.90
2018-08-22T20:21:21.579Z,90.80
2018-08-22T20:23:51.725Z,90.90
2018-08-22T20:26:20.181Z,91.00
2018-08-22T20:28:52.906Z,91.10
2018-08-22T20:31:22.013Z,91.20
2018-08-22T20:34:03.758Z,91.30
2018-08-22T20:36:32.570Z,91.30
2018-08-22T20:39:05.602Z,91.00
2018-08-22T20:41:34.489Z,91.30
2018-08-22T20:44:03.838Z,91.30
2018-08-22T20:46:32.259Z,91.50
2018-08-22T20:49:00.629Z,91.50
2018-08-22T20:51:30.405Z,91.50
2018-08-22T20:54:05.183Z,91.80
2018-08-22T20:56:33.799Z,92.00
2018-08-22T20:59:02.259Z,92.80
2018-08-22T21:01:30.726Z,92.30
2018-08-22T21:04:01.418Z,92.20
2018-08-22T21:06:30.266Z,92.20
2018-08-22T21:08:59.328Z,92.20
2018-08-22T21:11:27.820Z,92.10
2018-08-22T21:13:56.358Z,92.60
2018-08-22T21:16:24.887Z,92.40
2018-08-22T21:18:53.309Z,92.50
2018-08-22T21:21:24.727Z,92.70
2018-08-22T21:23:53.363Z,93.00
2018-08-22T21:26:37.127Z,93.10
2018-08-22T21:29:05.905Z,93.10
2018-08-22T21:31:35.395Z,93.40
2018-08-22T21:34:10.533Z,93.50
2018-08-22T21:36:40.373Z,93.50
2018-08-22T21:39:14.365Z,93.70
2018-08-22T21:41:44.410Z,93.90
2018-08-22T21:44:14.876Z,94.10
2018-08-22T21:46:43.409Z,94.20
2018-08-22T21:49:12.666Z,94.00
2018-08-22T21:51:41.849Z,94.00
2018-08-22T21:54:11.390Z,93.90
2018-08-22T21:56:40.268Z,93.90
2018-08-22T21:59:09.693Z,93.90
2018-08-22T22:01:46.360Z,93.90
2018-08-22T22:04:19.892Z,94.00
2018-08-22T22:06:49.449Z,94.30
2018-08-22T22:09:17.890Z,94.00
2018-08-22T22:11:46.570Z,94.20
2018-08-22T22:14:25.308Z,94.50
2018-08-22T22:16:54.548Z,94.30
2018-08-22T22:19:22.956Z,94.20
2018-08-22T22:21:51.376Z,94.20
2018-08-22T22:24:19.776Z,94.10
2018-08-22T22:26:48.288Z,94.20
2018-08-22T22:29:16.681Z,94.30
2018-08-22T22:31:46.061Z,94.30
2018-08-22T22:34:14.447Z,94.40
2018-08-22T22:36:42.837Z,94.50
2018-08-22T22:39:43.835Z,94.70
2018-08-22T22:42:33.051Z,95.00
2018-08-22T22:45:01.495Z,95.30
2018-08-22T22:47:31.987Z,95.60
2018-08-22T22:50:01.108Z,95.70
2018-08-22T22:52:45.119Z,95.80
2018-08-22T22:55:14.039Z,95.90
2018-08-22T22:57:43.822Z,96.20
2018-08-22T23:00:13.983Z,96.30
2018-08-22T23:02:43.654Z,96.40
2018-08-22T23:05:12.121Z,96.40
2018-08-22T23:07:41.607Z,96.40
2018-08-22T23:10:11.405Z,96.60
2018-08-22T23:12:41.076Z,96.60
2018-08-22T23:15:14.288Z,96.60
2018-08-22T23:17:43.121Z,96.70
2018-08-22T23:20:23.261Z,96.80
2018-08-22T23:22:51.643Z,97.20
2018-08-22T23:25:20.085Z,97.00
2018-08-22T23:27:48.764Z,97.10
2018-08-22T23:30:19.281Z,97.10
2018-08-22T23:32:47.690Z,97.20
2018-08-22T23:35:24.291Z,97.20
2018-08-22T23:38:01.149Z,97.30
2018-08-22T23:40:30.779Z,97.40
2018-08-22T23:42:59.214Z,97.40
2018-08-22T23:45:27.616Z,97.50
2018-08-22T23:47:56.047Z,97.70
2018-08-22T23:50:59.885Z,97.70
2018-08-22T23:53:37.727Z,97.90
2018-08-22T23:56:16.675Z,97.70
2018-08-22T23:58:46.073Z,97.80
